Terminal Aerodrome Forecast
Issued by NWS

Home | Current Version | Previous Version | Text Only | Print | Product List | Glossary On
Versions: 1 2 3 4 5 6 7 8 9 10 11 12 13 14 15 16 17 18 19 20 21 22 23 24
157
FTUS46 KSEW 202339
TAFOLM
TAF
KOLM 202339Z 2100/2124 02009KT P6SM SCT250
     FM210300 18004KT P6SM SCT250
     FM211200 22004KT P6SM SCT050 BKN070
     FM211700 21005KT P6SM OVC050=

USA.gov is the U.S. government's official web portal to all federal, state and local government web resources and services.